Hauptseite
METAR-TAF:

METAR-TAF

Flughäfen :

Flughafen Málaga

Málaga, Spanien

Breite: 36-40N, Länge: 004-29W, Höhe: 16 m

Beobachtung

Neuester Wetterbericht von vor 17 Minuten, um 19:00 UTC
Wind 5 kt aus Ost/Südost, variierte zwischen Ost und Südost
Temperatur 14°C
Luftfeuchtigkeit 88%
Luftdruck 1024 hPa
Sichtweite 10 km oder mehr
Leicht bewölkt in der Höhe von 4000 ft

METAR: LEMG 071900Z 11005KT 080V140 9999 FEW040 14/12 Q1024 NOSIG

Zeit: 20:17 (19:17 UTC)

Prognose

Neuester Wetterbericht von vor 2 Stunden und 17 Minuten, um 17:00 UTC
Gültige Prognose vom 07 um 18 UTC bis 08 um 18 UTC
Wind 8 kt aus West/Nordwest
Sichtweite 10 km oder mehr
Leicht bewölkt in der Höhe von 4000 ft
Zeitweise
vom 07 um 18 UTC bis 07 um 19 UTC
Wind 10 kt aus Süd

TAF: LEMG 071700Z 0718/0818 30008KT 9999 FEW040 TX21/0814Z TN11/0806Z TEMPO 0718/0719 18010KT

Wetterbeobachtungen und Prognosen von mehr als 4000 Flughäfen (METAR und TAF Bericht).

Die verfügbaren Stationen werden durch gelbe und rote Markierungen auf der Karte dargestellt.

Führen Sie die Maus auf sie, um den Namen der Station zu sehen.

Darauf klicken, um die Beobachtung von Wetterbeobachtungen und Prognosen zu sehen.

Um die Karte zu ändern : klicken Sie auf den grünen Tasten mit einem schwarzen Kreuz Zum Vergrößern, auf den grünen Button mit einem Gedankenstrich zu verkleinern, oder auf die grünen Pfeile für benachbarte Karten.


METAR-TAF: